Time;durP1;ratioP1;P1;durP2;ratioP2;P2;SDS_P1;SDS_P2;PMS_P1;PMS_P2;Temp;Humidity;BMP_temperature;BMP_pressure;BME280_temperature;BME280_humidity;BME280_pressure;Samples;Min_cycle;Max_cycle;Signal;HPM_P1;HPM_P2
2023/10/11 00:03:05;;;;;;;32.83;18.77;;;;;;;-141.23;100.00;62281.09;5051907;28;20201;-73
2023/10/11 00:05:37;;;;;;;32.27;18.97;;;;;;;-141.23;100.00;62281.09;5004547;28;20041;-72
2023/10/11 00:08:03;;;;;;;27.67;17.70;;;;;;;-141.23;100.00;62281.09;5032628;28;20107;-72
2023/10/11 00:10:31;;;;;;;28.47;17.00;;;;;;;-141.23;100.00;62281.09;4999223;28;20089;-72
2023/10/11 00:12:58;;;;;;;24.73;15.90;;;;;;;-141.23;100.00;62281.09;4998020;28;20095;-73
2023/10/11 00:15:28;;;;;;;27.03;16.93;;;;;;;-141.23;100.00;62281.09;5014596;28;20172;-72
2023/10/11 00:17:57;;;;;;;22.70;15.55;;;;;;;-141.23;100.00;62281.09;5014649;28;20056;-73
2023/10/11 00:23:06;;;;;;;24.35;16.05;;;;;;;-141.23;100.00;62281.09;5012390;28;20053;-72
2023/10/11 00:25:31;;;;;;;25.07;16.07;;;;;;;-141.23;100.00;62281.09;5014495;28;20037;-72
2023/10/11 00:27:58;;;;;;;25.67;15.67;;;;;;;-141.23;100.00;62281.09;4997666;28;20575;-72
2023/10/11 00:30:29;;;;;;;26.47;15.77;;;;;;;-141.23;100.00;62281.09;4997734;28;20041;-73
2023/10/11 00:32:56;;;;;;;26.67;16.17;;;;;;;-141.23;100.00;62281.09;5029979;28;20056;-72
2023/10/11 00:35:25;;;;;;;28.60;16.93;;;;;;;-141.23;100.00;62281.09;5011859;28;20584;-72
2023/10/11 00:37:52;;;;;;;23.60;16.53;;;;;;;-141.23;100.00;62281.09;5013725;28;20041;-72
2023/10/11 00:40:28;;;;;;;30.37;19.77;;;;;;;-141.23;100.00;62281.09;5050002;28;20090;-73
2023/10/11 00:42:54;;;;;;;23.67;16.70;;;;;;;-141.23;100.00;62281.09;5033757;28;20136;-73
2023/10/11 00:45:30;;;;;;;21.40;15.63;;;;;;;-141.23;100.00;62281.09;4999994;28;20044;-73
2023/10/11 00:47:58;;;;;;;20.50;14.33;;;;;;;-141.23;100.00;62281.09;5034506;28;20631;-73
2023/10/11 00:50:30;;;;;;;21.67;14.57;;;;;;;-141.23;100.00;62281.09;5018085;28;20125;-73
2023/10/11 00:53:00;;;;;;;20.33;12.73;;;;;;;-141.23;100.00;62281.09;5018335;28;20885;-71
2023/10/11 00:55:29;;;;;;;23.50;13.53;;;;;;;-141.23;100.00;62281.09;5018562;28;20045;-73
2023/10/11 00:57:58;;;;;;;19.30;12.87;;;;;;;-141.23;100.00;62281.09;5018342;28;20047;-72
2023/10/11 01:00:25;;;;;;;24.07;13.70;;;;;;;-141.23;100.00;62281.09;5050752;28;20430;-72
2023/10/11 01:02:52;;;;;;;19.67;13.23;;;;;;;-141.23;100.00;62281.09;5018091;28;20174;-72
2023/10/11 01:05:19;;;;;;;17.57;12.47;;;;;;;-141.23;100.00;62281.09;5033381;28;20080;-72
2023/10/11 01:07:46;;;;;;;16.07;10.00;;;;;;;-141.23;100.00;62281.09;5016095;28;20041;-71
2023/10/11 01:10:13;;;;;;;20.33;10.70;;;;;;;-141.23;100.00;62281.09;5015694;28;20048;-72
2023/10/11 01:12:39;;;;;;;17.50;10.43;;;;;;;-141.23;100.00;62281.09;5049549;28;20053;-72
2023/10/11 01:15:11;;;;;;;17.93;11.30;;;;;;;-141.23;100.00;62281.09;5015677;28;20033;-73
2023/10/11 01:17:39;;;;;;;14.80;10.10;;;;;;;-141.23;100.00;62281.09;5015995;28;20151;-72
2023/10/11 01:20:13;;;;;;;18.50;11.47;;;;;;;-141.23;100.00;62281.09;4999390;28;20036;-72
2023/10/11 01:22:46;;;;;;;23.87;12.43;;;;;;;-141.23;100.00;62281.09;5016841;28;20048;-71
2023/10/11 01:25:12;;;;;;;19.67;11.80;;;;;;;-141.23;100.00;62281.09;5033730;28;20685;-72
2023/10/11 01:27:39;;;;;;;15.67;9.97;;;;;;;-141.23;100.00;62281.09;5001945;28;20438;-72
2023/10/11 01:30:09;;;;;;;21.63;10.50;;;;;;;-141.23;100.00;62281.09;5051628;28;20047;-72
2023/10/11 01:32:41;;;;;;;17.40;10.37;;;;;;;-141.23;100.00;62281.09;5035025;28;20052;-72
2023/10/11 01:35:20;;;;;;;18.80;9.13;;;;;;;-141.23;100.00;62281.09;5050493;28;20044;-72
2023/10/11 01:37:48;;;;;;;12.67;7.70;;;;;;;-141.23;100.00;62281.09;5035032;28;20494;-72
2023/10/11 01:40:26;;;;;;;13.23;8.47;;;;;;;-141.23;100.00;62281.09;5066764;28;20202;-72
2023/10/11 01:42:53;;;;;;;13.20;8.30;;;;;;;-141.23;100.00;62281.09;5018574;28;20036;-72
2023/10/11 01:45:19;;;;;;;9.53;6.00;;;;;;;-141.23;100.00;62281.09;5017202;28;20098;-72
2023/10/11 01:47:47;;;;;;;8.60;5.77;;;;;;;-141.23;100.00;62281.09;5050223;28;20037;-73
2023/10/11 01:50:15;;;;;;;11.23;4.77;;;;;;;-141.23;100.00;62281.09;5033923;28;20136;-71
2023/10/11 01:52:47;;;;;;;7.57;4.67;;;;;;;-141.23;100.00;62281.09;5000976;28;20048;-71
2023/10/11 01:55:15;;;;;;;9.90;4.73;;;;;;;-141.23;100.00;62281.09;5017586;28;20041;-74
2023/10/11 01:57:50;;;;;;;7.27;4.70;;;;;;;-141.23;100.00;62281.09;5018227;28;20106;-73
2023/10/11 02:00:20;;;;;;;7.50;4.30;;;;;;;-141.23;100.00;62281.09;5038831;28;20068;-75
2023/10/11 02:02:58;;;;;;;8.73;4.63;;;;;;;-141.23;100.00;62281.09;5038708;28;20076;-73
2023/10/11 02:05:25;;;;;;;9.17;4.33;;;;;;;-141.23;100.00;62281.09;5040336;28;20072;-73
2023/10/11 02:07:51;;;;;;;6.27;3.83;;;;;;;-141.23;100.00;62281.09;5055031;28;20041;-75
2023/10/11 02:10:27;;;;;;;6.90;3.97;;;;;;;-141.23;100.00;62281.09;5021386;28;20499;-74
2023/10/11 02:12:57;;;;;;;6.53;4.03;;;;;;;-141.23;100.00;62281.09;5069263;28;20044;-73
2023/10/11 02:15:29;;;;;;;5.10;3.53;;;;;;;-141.23;100.00;62281.09;5021112;28;20090;-74
2023/10/11 02:17:57;;;;;;;5.27;3.47;;;;;;;-141.23;100.00;62281.09;5020825;28;20044;-74
2023/10/11 02:20:24;;;;;;;8.40;3.90;;;;;;;-141.23;100.00;62281.09;5020775;28;20052;-74
2023/10/11 02:22:53;;;;;;;6.67;3.77;;;;;;;-141.23;100.00;62281.09;5053693;28;20044;-74
2023/10/11 02:25:24;;;;;;;6.83;3.60;;;;;;;-141.23;100.00;62281.09;5070490;28;20460;-74
2023/10/11 02:27:52;;;;;;;5.63;3.83;;;;;;;-141.23;100.00;62281.09;5070183;28;20056;-74
2023/10/11 02:30:24;;;;;;;6.90;3.80;;;;;;;-141.23;100.00;62281.09;5054205;28;20497;-74
2023/10/11 02:32:52;;;;;;;5.33;3.63;;;;;;;-141.23;100.00;62281.09;5021678;28;20064;-72
2023/10/11 02:35:19;;;;;;;5.97;3.80;;;;;;;-141.23;100.00;62281.09;5036823;28;20451;-73
2023/10/11 02:37:46;;;;;;;5.87;3.50;;;;;;;-141.23;100.00;62281.09;5036609;28;20068;-73
2023/10/11 02:40:17;;;;;;;7.80;3.87;;;;;;;-141.23;100.00;62281.09;5036539;28;20095;-74
2023/10/11 02:42:46;;;;;;;10.50;4.93;;;;;;;-141.23;100.00;62281.09;5037267;28;20479;-74
2023/10/11 02:45:13;;;;;;;4.40;3.57;;;;;;;-141.23;100.00;62281.09;5036404;28;20044;-73
2023/10/11 02:47:42;;;;;;;5.70;3.87;;;;;;;-141.23;100.00;62281.09;5020676;28;20610;-74
2023/10/11 02:50:11;;;;;;;6.80;4.20;;;;;;;-141.23;100.00;62281.09;5037168;28;20048;-74
2023/10/11 02:52:39;;;;;;;7.50;3.90;;;;;;;-141.23;100.00;62281.09;5037107;28;20464;-74
2023/10/11 02:55:40;;;;;;;10.03;4.03;;;;;;;-141.23;100.00;62281.09;5036572;28;20340;-73
2023/10/11 02:58:08;;;;;;;7.20;4.20;;;;;;;-141.23;100.00;62281.09;5037828;28;20056;-72
2023/10/11 03:00:36;;;;;;;8.57;3.70;;;;;;;-141.23;100.00;62281.09;5019828;28;20059;-74
2023/10/11 03:03:10;;;;;;;5.07;3.47;;;;;;;-141.23;100.00;62281.09;5069081;28;20060;-74
2023/10/11 03:05:37;;;;;;;11.37;4.00;;;;;;;-141.23;100.00;62281.09;5020861;28;20037;-74
2023/10/11 03:08:14;;;;;;;8.30;3.93;;;;;;;-141.23;100.00;62281.09;5036434;28;20451;-75
2023/10/11 03:10:53;;;;;;;8.17;3.30;;;;;;;-141.23;100.00;62281.09;5021272;28;20129;-74
2023/10/11 03:13:26;;;;;;;7.03;3.77;;;;;;;-141.23;100.00;62281.09;5015424;28;20476;-74
2023/10/11 03:15:55;;;;;;;9.93;3.73;;;;;;;-141.23;100.00;62281.09;4982747;28;20380;-73
2023/10/11 03:18:31;;;;;;;5.03;3.00;;;;;;;-141.23;100.00;62281.09;4983042;28;20451;-73
2023/10/11 03:21:20;;;;;;;6.07;3.60;;;;;;;-141.23;100.00;62281.09;4983577;28;20419;-73
2023/10/11 03:23:54;;;;;;;5.88;3.30;;;;;;;-141.23;100.00;62281.09;4995492;28;20144;-72
2023/10/11 03:26:31;;;;;;;6.83;3.60;;;;;;;-141.23;100.00;62281.09;4994863;28;20050;-72
2023/10/11 03:29:04;;;;;;;11.13;3.93;;;;;;;-141.23;100.00;62281.09;4964889;28;20488;-72
2023/10/11 03:31:32;;;;;;;7.33;4.53;;;;;;;-141.23;100.00;62281.09;4995165;28;20050;-72
2023/10/11 03:33:59;;;;;;;6.10;4.27;;;;;;;-141.23;100.00;62281.09;4995000;28;20057;-72
2023/10/11 03:36:34;;;;;;;8.87;4.77;;;;;;;-141.23;100.00;62281.09;4978993;28;20468;-72
2023/10/11 03:39:09;;;;;;;7.80;4.60;;;;;;;-141.23;100.00;62281.09;4947483;28;20108;-73
2023/10/11 03:41:36;;;;;;;5.87;4.17;;;;;;;-141.23;100.00;62281.09;4979877;28;20049;-72
2023/10/11 03:44:11;;;;;;;10.97;5.03;;;;;;;-141.23;100.00;62281.09;5004176;28;20122;-72
2023/10/11 03:46:38;;;;;;;10.33;4.90;;;;;;;-141.23;100.00;62281.09;4998202;28;20049;-71
2023/10/11 03:49:36;;;;;;;8.90;4.67;;;;;;;-141.23;100.00;62281.09;5014072;28;20653;-71
2023/10/11 03:52:01;;;;;;;11.77;5.37;;;;;;;-141.23;100.00;62281.09;4998007;28;20056;-71
2023/10/11 03:54:27;;;;;;;7.47;4.53;;;;;;;-141.23;100.00;62281.09;5004713;28;20501;-71
2023/10/11 03:56:54;;;;;;;7.20;4.80;;;;;;;-141.23;100.00;62281.09;5054113;28;20078;-72
2023/10/11 03:59:20;;;;;;;11.13;5.10;;;;;;;-141.23;100.00;62281.09;5054076;28;20032;-73
2023/10/11 04:01:47;;;;;;;8.20;4.63;;;;;;;-141.23;100.00;62281.09;5034049;28;20045;-73
2023/10/11 04:04:13;;;;;;;12.17;5.50;;;;;;;-141.23;100.00;62281.09;5068692;28;20505;-74
2023/10/11 04:06:39;;;;;;;12.07;5.37;;;;;;;-141.23;100.00;62281.09;5018567;28;20040;-73
2023/10/11 04:09:21;;;;;;;9.03;5.40;;;;;;;-141.23;100.00;62281.09;5018758;28;20099;-74
2023/10/11 04:11:55;;;;;;;7.10;4.57;;;;;;;-141.23;100.00;62281.09;4996732;28;20053;-73
2023/10/11 04:14:39;;;;;;;10.17;4.67;;;;;;;-141.23;100.00;62281.09;4947539;28;20149;-73
2023/10/11 04:17:10;;;;;;;8.03;4.47;;;;;;;-141.23;100.00;62281.09;4996970;28;20060;-73
2023/10/11 04:19:40;;;;;;;9.47;4.93;;;;;;;-141.23;100.00;62281.09;4955561;28;20141;-73
2023/10/11 04:22:12;;;;;;;9.77;4.83;;;;;;;-141.23;100.00;62281.09;4939448;28;20093;-73
2023/10/11 04:24:41;;;;;;;6.80;4.80;;;;;;;-141.23;100.00;62281.09;4909758;28;20293;-74
2023/10/11 04:27:45;;;;;;;8.43;4.43;;;;;;;-141.23;100.00;62281.09;4939835;28;20112;-73
2023/10/11 04:30:17;;;;;;;8.37;4.37;;;;;;;-141.23;100.00;62281.09;4926477;28;20382;-71
2023/10/11 04:32:46;;;;;;;5.10;4.10;;;;;;;-141.23;100.00;62281.09;4952335;28;20055;-72
2023/10/11 04:35:22;;;;;;;11.43;4.20;;;;;;;-141.23;100.00;62281.09;4936092;29;20327;-72
2023/10/11 04:38:01;;;;;;;8.47;3.97;;;;;;;-141.23;100.00;62281.09;4936426;29;20118;-74
2023/10/11 04:43:04;;;;;;;7.90;4.53;;;;;;;-141.23;100.00;62281.09;4959134;28;20061;-71
2023/10/11 04:45:43;;;;;;;10.10;4.55;;;;;;;-141.23;100.00;62281.09;4975562;28;20374;-72
2023/10/11 04:48:14;;;;;;;10.93;5.10;;;;;;;-141.23;100.00;62281.09;4992370;28;20955;-72
2023/10/11 04:50:50;;;;;;;10.20;5.67;;;;;;;-141.23;100.00;62281.09;5006156;28;20057;-71
2023/10/11 04:53:17;;;;;;;8.47;4.70;;;;;;;-141.23;100.00;62281.09;5014275;28;20046;-72
2023/10/11 04:55:59;;;;;;;13.40;5.00;;;;;;;-141.23;100.00;62281.09;4997706;28;20164;-72
2023/10/11 05:01:11;;;;;;;8.70;4.13;;;;;;;-141.23;100.00;62281.09;5009288;28;20041;-73
2023/10/11 05:03:39;;;;;;;7.35;4.55;;;;;;;-141.23;100.00;62281.09;4988480;28;20118;-74
2023/10/11 05:06:19;;;;;;;8.63;4.53;;;;;;;-141.23;100.00;62281.09;5016820;28;20064;-74
2023/10/11 05:08:51;;;;;;;15.50;4.80;;;;;;;-141.23;100.00;62281.09;5049914;28;20049;-71
2023/10/11 05:11:43;;;;;;;7.30;4.30;;;;;;;-141.23;100.00;62281.09;5033491;28;20102;-71
2023/10/11 05:16:51;;;;;;;9.13;4.07;;;;;;;-141.23;100.00;62281.09;4990202;28;20053;-71
2023/10/11 05:19:20;;;;;;;9.47;4.67;;;;;;;-141.23;100.00;62281.09;4980130;28;20387;-72
2023/10/11 05:21:52;;;;;;;8.97;4.70;;;;;;;-141.23;100.00;62281.09;5012772;28;20049;-72
2023/10/11 05:27:11;;;;;;;5.17;3.33;;;;;;;-141.23;100.00;62281.09;5027969;28;20595;-72
2023/10/11 05:32:32;;;;;;;7.53;3.53;;;;;;;-141.23;100.00;62281.09;4981879;28;20558;-72
2023/10/11 05:35:19;;;;;;;4.07;3.40;;;;;;;-141.23;100.00;62281.09;5015676;28;20053;-76
2023/10/11 05:51:29;;;;;;;5.00;3.13;;;;;;;-141.23;100.00;62281.09;5016198;28;20048;-70
2023/10/11 05:53:55;;;;;;;5.60;3.40;;;;;;;-141.23;100.00;62281.09;5013098;28;20041;-70
2023/10/11 05:56:22;;;;;;;5.30;3.43;;;;;;;-141.23;100.00;62281.09;5052947;28;20186;-69
2023/10/11 05:58:50;;;;;;;5.33;3.63;;;;;;;-141.23;100.00;62281.09;5020117;28;20473;-75
2023/10/11 06:01:17;;;;;;;9.50;3.53;;;;;;;-141.23;100.00;62281.09;5003617;28;20482;-71
2023/10/11 06:03:43;;;;;;;8.73;4.03;;;;;;;-141.23;100.00;62281.09;5019644;28;20474;-72
2023/10/11 06:06:32;;;;;;;4.53;3.00;;;;;;;-141.23;100.00;62281.09;5052376;28;20049;-72
2023/10/11 06:09:01;;;;;;;4.37;3.40;;;;;;;-141.23;100.00;62281.09;5022660;28;20139;-79
2023/10/11 06:11:36;;;;;;;8.80;3.63;;;;;;;-141.23;100.00;62281.09;5015979;28;20033;-77
2023/10/11 06:14:05;;;;;;;9.33;3.80;;;;;;;-141.23;100.00;62281.09;5042025;28;20494;-74
2023/10/11 06:16:38;;;;;;;5.53;3.30;;;;;;;-141.23;100.00;62281.09;5024533;28;20041;-71
2023/10/11 06:19:16;;;;;;;5.57;3.30;;;;;;;-141.23;100.00;62281.09;5040156;28;20431;-75
2023/10/11 06:21:59;;;;;;;6.77;3.70;;;;;;;-141.23;100.00;62281.09;5026158;28;20041;-74
2023/10/11 06:24:30;;;;;;;8.43;3.75;;;;;;;-141.23;100.00;62281.09;5002610;28;20033;-74
2023/10/11 06:27:11;;;;;;;7.85;3.58;;;;;;;-141.23;100.00;62281.09;4996883;28;20164;-73
2023/10/11 06:29:38;;;;;;;;;;;;;;;-141.23;100.00;62281.09;5021622;28;20115;-73
2023/10/11 06:32:11;;;;;;;8.65;3.70;;;;;;;-141.23;100.00;62281.09;4983474;28;19921;-75
2023/10/11 06:34:39;;;;;;;7.90;2.97;;;;;;;-141.23;100.00;62281.09;5001105;28;20080;-72
2023/10/11 06:37:07;;;;;;;13.65;3.53;;;;;;;-141.23;100.00;62281.09;5032255;28;20037;-76
2023/10/11 06:39:34;;;;;;;8.15;2.88;;;;;;;-141.23;100.00;62281.09;4995791;28;20371;-68
2023/10/11 06:42:32;;;;;;;8.02;3.65;;;;;;;-141.23;100.00;62281.09;5038241;28;20533;-69
2023/10/11 06:45:05;;;;;;;7.07;3.08;;;;;;;-141.23;100.00;62281.09;5022992;28;20038;-72
2023/10/11 06:47:35;;;;;;;6.15;2.55;;;;;;;-141.23;100.00;62281.09;5040300;28;20045;-74
2023/10/11 06:50:13;;;;;;;4.63;2.13;;;;;;;-141.23;100.00;62281.09;5001637;28;20361;-76
2023/10/11 06:52:43;;;;;;;5.10;2.50;;;;;;;-141.23;100.00;62281.09;5000474;28;20038;-66
2023/10/11 06:57:50;;;;;;;5.63;2.22;;;;;;;-141.23;100.00;62281.09;4999257;28;20099;-71
2023/10/11 07:00:36;;;;;;;5.00;2.28;;;;;;;-141.23;100.00;62281.09;5033398;28;20047;-70
2023/10/11 07:05:49;;;;;;;2.20;1.70;;;;;;;-141.23;100.00;62281.09;5003354;28;20037;-71
2023/10/11 07:08:20;;;;;;;4.82;1.60;;;;;;;-141.23;100.00;62281.09;5034244;28;20040;-73
2023/10/11 07:13:54;;;;;;;3.05;1.27;;;;;;;-141.23;100.00;62281.09;5039443;28;20048;-74
2023/10/11 07:16:27;;;;;;;3.22;1.73;;;;;;;-141.23;100.00;62281.09;5028052;28;20037;-73
2023/10/11 07:18:54;;;;;;;4.75;2.00;;;;;;;-141.23;100.00;62281.09;5037764;28;20191;-71
2023/10/11 07:26:56;;;;;;;3.80;1.55;;;;;;;-141.23;100.00;62281.09;5031039;28;20049;-74
2023/10/11 07:29:22;;;;;;;2.72;1.48;;;;;;;-141.23;100.00;62281.09;4984889;28;20530;-72
2023/10/11 07:31:48;;;;;;;5.15;2.05;;;;;;;-141.23;100.00;62281.09;5031771;28;20182;-74
2023/10/11 07:34:25;;;;;;;1.73;1.58;;;;;;;-141.23;100.00;62281.09;5014352;28;20069;-77
2023/10/11 07:36:51;;;;;;;2.72;1.58;;;;;;;-141.23;100.00;62281.09;5030900;28;20044;-71
2023/10/11 07:39:25;;;;;;;2.38;1.60;;;;;;;-141.23;100.00;62281.09;5001186;28;20041;-73
2023/10/11 07:42:36;;;;;;;3.65;1.55;;;;;;;-141.23;100.00;62281.09;5002605;28;20530;-76
2023/10/11 07:44:50;;;;;;;4.03;1.67;;;;;;;-141.23;100.00;62281.09;5013929;28;20045;-75
2023/10/11 07:47:18;;;;;;;3.65;1.35;;;;;;;-141.23;100.00;62281.09;4999223;28;20034;-73
2023/10/11 07:49:45;;;;;;;3.28;1.40;;;;;;;-141.23;100.00;62281.09;5017902;28;20456;-74
2023/10/11 07:52:19;;;;;;;3.03;1.40;;;;;;;-141.23;100.00;62281.09;4979233;28;20427;-74
2023/10/11 07:54:45;;;;;;;4.20;1.60;;;;;;;-141.23;100.00;62281.09;4982969;28;20472;-74
2023/10/11 07:57:14;;;;;;;3.63;1.40;;;;;;;-141.23;100.00;62281.09;5002227;28;20042;-73
2023/10/11 07:59:44;;;;;;;5.13;1.20;;;;;;;-141.23;100.00;62281.09;5021246;28;20525;-75
2023/10/11 08:04:57;;;;;;;4.78;1.40;;;;;;;-141.23;100.00;62281.09;4987584;28;20478;-73
2023/10/11 08:07:23;;;;;;;2.22;1.23;;;;;;;-141.23;100.00;62281.09;5020668;28;20042;-73
2023/10/11 08:09:52;;;;;;;1.75;1.27;;;;;;;-141.23;100.00;62281.09;4969737;28;20060;-74
2023/10/11 08:12:22;;;;;;;2.30;1.40;;;;;;;-141.23;100.00;62281.09;5019662;28;20043;-76
2023/10/11 08:14:48;;;;;;;2.80;1.33;;;;;;;-141.23;100.00;62281.09;5012279;28;20054;-73
2023/10/11 08:17:19;;;;;;;3.42;1.02;;;;;;;-141.23;100.00;62281.09;4976481;28;20060;-74
2023/10/11 08:19:48;;;;;;;1.50;1.30;;;;;;;-141.23;100.00;62281.09;4989732;28;20400;-74
2023/10/11 08:22:15;;;;;;;2.00;1.13;;;;;;;-141.23;100.00;62281.09;5022733;28;20042;-73
2023/10/11 08:24:51;;;;;;;3.80;1.10;;;;;;;-141.23;100.00;62281.09;5044029;28;20143;-74
2023/10/11 08:27:28;;;;;;;3.03;1.33;;;;;;;-141.23;100.00;62281.09;5046236;28;20447;-73
2023/10/11 08:32:38;;;;;;;3.85;0.98;;;;;;;-141.23;100.00;62281.09;5034851;28;20118;-74
2023/10/11 08:35:10;;;;;;;3.28;1.20;;;;;;;-141.23;100.00;62281.09;5013853;28;20482;-74
2023/10/11 08:37:38;;;;;;;2.55;1.05;;;;;;;-141.23;100.00;62281.09;4997319;28;20128;-74
2023/10/11 08:40:29;;;;;;;2.20;1.10;;;;;;;-141.23;100.00;62281.09;5007469;28;20442;-73
2023/10/11 08:42:54;;;;;;;5.45;1.10;;;;;;;-141.23;100.00;62281.09;5036002;28;20047;-73
2023/10/11 08:45:38;;;;;;;2.03;1.10;;;;;;;-141.23;100.00;62281.09;5031672;28;20136;-74
2023/10/11 08:48:05;;;;;;;2.97;1.08;;;;;;;-141.23;100.00;62281.09;5049107;28;20041;-75
2023/10/11 08:50:35;;;;;;;1.67;1.02;;;;;;;-141.23;100.00;62281.09;5049658;28;20040;-74
2023/10/11 08:53:09;;;;;;;4.25;1.05;;;;;;;-141.23;100.00;62281.09;5032902;28;20051;-75
2023/10/11 08:55:39;;;;;;;2.45;1.20;;;;;;;-141.23;100.00;62281.09;5015778;28;20106;-75
2023/10/11 08:58:06;;;;;;;0.80;0.80;;;;;;;-141.23;100.00;62281.09;5032744;28;20286;-74
2023/10/11 09:00:34;;;;;;;1.25;1.10;;;;;;;-141.23;100.00;62281.09;5032932;28;20472;-74
2023/10/11 09:03:19;;;;;;;5.43;1.20;;;;;;;-141.23;100.00;62281.09;5032648;28;20423;-74
2023/10/11 09:05:47;;;;;;;5.38;0.98;;;;;;;-141.23;100.00;62281.09;5016434;28;20059;-76
2023/10/11 09:08:27;;;;;;;1.55;0.95;;;;;;;-141.23;100.00;62281.09;5033062;28;20072;-74
2023/10/11 09:11:11;;;;;;;3.40;1.03;;;;;;;-141.23;100.00;62281.09;5032816;28;20103;-73
2023/10/11 09:13:38;;;;;;;1.88;1.25;;;;;;;-141.23;100.00;62281.09;5032189;28;20045;-76
2023/10/11 09:16:12;;;;;;;1.00;0.90;;;;;;;-141.23;100.00;62281.09;5048926;28;20127;-76
2023/10/11 09:18:39;;;;;;;1.35;1.10;;;;;;;-141.23;100.00;62281.09;5033174;28;20110;-77
2023/10/11 09:21:15;;;;;;;4.03;1.42;;;;;;;-141.23;100.00;62281.09;5022711;28;20132;-76
2023/10/11 09:23:49;;;;;;;1.52;1.17;;;;;;;-141.23;100.00;62281.09;5039010;28;20156;-75
2023/10/11 09:26:32;;;;;;;1.20;1.08;;;;;;;-141.23;100.00;62281.09;5066231;28;20128;-77
2023/10/11 09:29:02;;;;;;;5.78;1.08;;;;;;;-141.23;100.00;62281.09;5024356;28;20052;-78
2023/10/11 09:31:32;;;;;;;1.38;1.00;;;;;;;-141.23;100.00;62281.09;5013293;28;20104;-77
2023/10/11 09:34:07;;;;;;;1.60;1.05;;;;;;;-141.23;100.00;62281.09;5013138;28;20060;-73
2023/10/11 09:36:34;;;;;;;1.05;0.90;;;;;;;-141.23;100.00;62281.09;5029518;28;20045;-77
2023/10/11 09:39:03;;;;;;;1.83;1.33;;;;;;;-141.23;100.00;62281.09;5030105;28;20037;-76
2023/10/11 09:41:40;;;;;;;1.50;1.08;;;;;;;-141.23;100.00;62281.09;5049977;28;20045;-77
2023/10/11 09:44:10;;;;;;;1.45;1.00;;;;;;;-141.23;100.00;62281.09;5048922;28;20092;-75
2023/10/11 09:46:37;;;;;;;2.90;1.25;;;;;;;-141.23;100.00;62281.09;5033033;28;20486;-78
2023/10/11 09:49:04;;;;;;;1.42;1.30;;;;;;;-141.23;100.00;62281.09;5031083;28;20532;-77
2023/10/11 09:51:31;;;;;;;2.63;1.17;;;;;;;-141.23;100.00;62281.09;5015140;28;20139;-74
2023/10/11 09:54:07;;;;;;;2.08;1.20;;;;;;;-141.23;100.00;62281.09;5015197;28;20045;-73
2023/10/11 09:56:50;;;;;;;1.00;0.90;;;;;;;-141.23;100.00;62281.09;5047995;28;20490;-79
2023/10/11 09:59:41;;;;;;;4.45;1.17;;;;;;;-141.23;100.00;62281.09;4998438;28;20052;-76
2023/10/11 10:02:15;;;;;;;1.90;1.25;;;;;;;-141.23;100.00;62281.09;4994598;28;20045;-74
2023/10/11 10:04:51;;;;;;;4.78;1.25;;;;;;;-141.23;100.00;62281.09;5020058;28;20060;-79
2023/10/11 10:07:21;;;;;;;1.20;1.10;;;;;;;-141.23;100.00;62281.09;5027733;28;20116;-77
2023/10/11 10:09:52;;;;;;;3.20;1.00;;;;;;;-141.23;100.00;62281.09;5006446;28;20499;-76
2023/10/11 10:12:22;;;;;;;4.97;2.05;;;;;;;-141.23;100.00;62281.09;5020901;28;20047;-73
2023/10/11 10:15:10;;;;;;;4.75;1.30;;;;;;;-141.23;100.00;62281.09;5003549;28;20099;-78
2023/10/11 10:17:42;;;;;;;1.42;1.00;;;;;;;-141.23;100.00;62281.09;4996698;28;20041;-78
2023/10/11 10:20:49;;;;;;;1.00;0.90;;;;;;;-141.23;100.00;62281.09;5009866;28;20376;-77
2023/10/11 10:23:15;;;;;;;1.95;1.10;;;;;;;-141.23;100.00;62281.09;5043370;28;20128;-77
2023/10/11 10:26:13;;;;;;;2.53;1.20;;;;;;;-141.23;100.00;62281.09;5032116;28;20626;-78
2023/10/11 10:28:39;;;;;;;1.42;0.85;;;;;;;-141.23;100.00;62281.09;5079392;28;20095;-74
2023/10/11 10:31:11;;;;;;;1.90;1.10;;;;;;;-141.23;100.00;62281.09;5026354;28;20060;-77
2023/10/11 10:33:41;;;;;;;2.92;0.80;;;;;;;-141.23;100.00;62281.09;5013172;28;20032;-73
2023/10/11 10:36:29;;;;;;;1.13;1.03;;;;;;;-141.23;100.00;62281.09;5027792;28;20424;-80
2023/10/11 10:39:24;;;;;;;1.88;1.13;;;;;;;-141.23;100.00;62281.09;5050329;28;20045;-72
2023/10/11 10:42:12;;;;;;;1.23;1.13;;;;;;;-141.23;100.00;62281.09;5050880;28;20045;-74
2023/10/11 10:44:52;;;;;;;2.80;1.20;;;;;;;-141.23;100.00;62281.09;5034089;28;20037;-72
2023/10/11 10:47:22;;;;;;;1.88;1.05;;;;;;;-141.23;100.00;62281.09;5034008;28;20053;-75
2023/10/11 10:49:51;;;;;;;3.22;1.13;;;;;;;-141.23;100.00;62281.09;5034045;28;20048;-72
2023/10/11 10:52:18;;;;;;;1.80;1.20;;;;;;;-141.23;100.00;62281.09;5049552;28;20049;-72
2023/10/11 10:55:14;;;;;;;1.98;1.33;;;;;;;-141.23;100.00;62281.09;5048152;28;20053;-73
2023/10/11 10:57:41;;;;;;;2.67;1.40;;;;;;;-141.23;100.00;62281.09;4994929;28;20046;-70
2023/10/11 11:00:20;;;;;;;6.22;1.88;;;;;;;-141.23;100.00;62281.09;4995386;28;20072;-75
2023/10/11 11:02:46;;;;;;;6.03;2.28;;;;;;;-141.23;100.00;62281.09;4993400;28;20634;-73
2023/10/11 11:05:15;;;;;;;3.05;1.73;;;;;;;-141.23;100.00;62281.09;4990827;28;20061;-72
2023/10/11 11:07:48;;;;;;;3.28;1.85;;;;;;;-141.23;100.00;62281.09;5008010;28;20045;-71
2023/10/11 11:10:21;;;;;;;6.38;1.60;;;;;;;-141.23;100.00;62281.09;5051400;28;20278;-72
2023/10/11 11:12:49;;;;;;;2.38;1.45;;;;;;;-141.23;100.00;62281.09;5066951;28;20087;-73
2023/10/11 11:15:22;;;;;;;2.72;1.60;;;;;;;-141.23;100.00;62281.09;5050996;28;20333;-72
2023/10/11 11:17:51;;;;;;;4.25;2.25;;;;;;;-141.23;100.00;62281.09;5052260;28;20131;-73
2023/10/11 11:22:52;;;;;;;6.07;2.70;;;;;;;-141.23;100.00;62281.09;5052176;28;20068;-73
2023/10/11 11:28:08;;;;;;;5.00;2.38;;;;;;;-141.23;100.00;62281.09;5051743;28;20041;-69
2023/10/11 11:30:34;;;;;;;3.60;1.40;;;;;;;-141.23;100.00;62281.09;5051954;28;20495;-71
2023/10/11 11:33:13;;;;;;;2.03;1.23;;;;;;;-141.23;100.00;62281.09;5051850;28;20117;-72
2023/10/11 11:35:45;;;;;;;4.05;1.50;;;;;;;-141.23;100.00;62281.09;5036044;28;20049;-73
2023/10/11 11:38:20;;;;;;;4.43;1.77;;;;;;;-141.23;100.00;62281.09;5051610;28;20387;-71
2023/10/11 11:40:48;;;;;;;2.97;1.70;;;;;;;-141.23;100.00;62281.09;5035349;28;20115;-71
2023/10/11 11:43:20;;;;;;;3.92;1.67;;;;;;;-141.23;100.00;62281.09;5050673;28;20140;-70
2023/10/11 11:45:48;;;;;;;3.15;1.10;;;;;;;-141.23;100.00;62281.09;5050479;28;20919;-69
2023/10/11 11:48:14;;;;;;;4.88;1.60;;;;;;;-141.23;100.00;62281.09;5050739;28;20376;-70
2023/10/11 11:50:41;;;;;;;1.77;1.17;;;;;;;-141.23;100.00;62281.09;5050469;28;20600;-69
2023/10/11 11:53:07;;;;;;;5.90;1.30;;;;;;;-141.23;100.00;62281.09;5051506;28;20049;-74
2023/10/11 11:55:35;;;;;;;2.20;1.10;;;;;;;-141.23;100.00;62281.09;5032108;28;20044;-72
2023/10/11 11:58:10;;;;;;;4.72;1.83;;;;;;;-141.23;100.00;62281.09;5034280;28;20047;-74
2023/10/11 12:00:38;;;;;;;5.50;1.30;;;;;;;-141.23;100.00;62281.09;5050238;28;20489;-74
2023/10/11 12:03:06;;;;;;;4.30;1.23;;;;;;;-141.23;100.00;62281.09;5050002;28;20068;-73
2023/10/11 12:05:40;;;;;;;2.03;1.20;;;;;;;-141.23;100.00;62281.09;5050283;28;20045;-73
2023/10/11 12:08:08;;;;;;;1.55;1.15;;;;;;;-141.23;100.00;62281.09;5034397;28;20047;-74
2023/10/11 12:10:35;;;;;;;1.40;1.05;;;;;;;-141.23;100.00;62281.09;5033562;28;20132;-74
2023/10/11 12:13:08;;;;;;;1.90;1.20;;;;;;;-141.23;100.00;62281.09;5049382;28;20219;-75
2023/10/11 12:15:37;;;;;;;2.10;1.08;;;;;;;-141.23;100.00;62281.09;5051695;28;20037;-78
2023/10/11 12:18:05;;;;;;;1.25;0.95;;;;;;;-141.23;100.00;62281.09;5056269;28;20118;-76
2023/10/11 12:20:36;;;;;;;1.20;0.95;;;;;;;-141.23;100.00;62281.09;5053790;28;20037;-74
2023/10/11 12:23:11;;;;;;;1.75;1.25;;;;;;;-141.23;100.00;62281.09;5053790;28;20051;-73
2023/10/11 12:25:39;;;;;;;1.38;1.00;;;;;;;-141.23;100.00;62281.09;5051725;28;20557;-73